sensor_id;sensor_type;location;lat;lon;timestamp;P1;durP1;ratioP1;P2;durP2;ratioP2
56653;SDS011;45096;52.302;4.634;2022-10-26T00:02:03;3.20;;;2.90;;
56653;SDS011;45096;52.302;4.634;2022-10-26T00:04:29;3.83;;;2.67;;
56653;SDS011;45096;52.302;4.634;2022-10-26T00:06:54;2.75;;;2.50;;
56653;SDS011;45096;52.302;4.634;2022-10-26T00:09:20;4.57;;;3.13;;
56653;SDS011;45096;52.302;4.634;2022-10-26T00:11:45;3.85;;;2.40;;
56653;SDS011;45096;52.302;4.634;2022-10-26T00:14:12;2.50;;;2.40;;
56653;SDS011;45096;52.302;4.634;2022-10-26T00:16:37;2.60;;;2.40;;
56653;SDS011;45096;52.302;4.634;2022-10-26T00:19:03;2.78;;;2.58;;
56653;SDS011;45096;52.302;4.634;2022-10-26T00:21:28;2.72;;;2.35;;
56653;SDS011;45096;52.302;4.634;2022-10-26T00:23:53;3.80;;;2.60;;
56653;SDS011;45096;52.302;4.634;2022-10-26T00:26:19;2.42;;;2.28;;
56653;SDS011;45096;52.302;4.634;2022-10-26T00:28:44;3.35;;;2.40;;
56653;SDS011;45096;52.302;4.634;2022-10-26T00:31:12;3.03;;;2.30;;
56653;SDS011;45096;52.302;4.634;2022-10-26T00:33:38;3.65;;;2.40;;
56653;SDS011;45096;52.302;4.634;2022-10-26T00:36:04;3.25;;;2.80;;
56653;SDS011;45096;52.302;4.634;2022-10-26T00:38:30;3.47;;;3.13;;
56653;SDS011;45096;52.302;4.634;2022-10-26T00:40:56;2.55;;;2.30;;
56653;SDS011;45096;52.302;4.634;2022-10-26T00:43:34;3.08;;;2.67;;
56653;SDS011;45096;52.302;4.634;2022-10-26T00:46:03;3.25;;;2.75;;
56653;SDS011;45096;52.302;4.634;2022-10-26T00:48:33;5.47;;;2.80;;
56653;SDS011;45096;52.302;4.634;2022-10-26T00:50:59;4.75;;;2.50;;
56653;SDS011;45096;52.302;4.634;2022-10-26T00:53:27;2.70;;;2.50;;
56653;SDS011;45096;52.302;4.634;2022-10-26T00:55:53;3.92;;;2.65;;
56653;SDS011;45096;52.302;4.634;2022-10-26T00:58:19;3.83;;;2.47;;
56653;SDS011;45096;52.302;4.634;2022-10-26T01:00:46;3.92;;;2.45;;
56653;SDS011;45096;52.302;4.634;2022-10-26T01:03:11;2.88;;;2.60;;
56653;SDS011;45096;52.302;4.634;2022-10-26T01:05:39;3.17;;;2.53;;
56653;SDS011;45096;52.302;4.634;2022-10-26T01:08:05;3.03;;;2.08;;
56653;SDS011;45096;52.302;4.634;2022-10-26T01:10:31;3.33;;;2.30;;
56653;SDS011;45096;52.302;4.634;2022-10-26T01:12:58;2.72;;;2.50;;
56653;SDS011;45096;52.302;4.634;2022-10-26T01:15:26;3.72;;;2.47;;
56653;SDS011;45096;52.302;4.634;2022-10-26T01:17:55;2.60;;;2.40;;
56653;SDS011;45096;52.302;4.634;2022-10-26T01:20:37;2.95;;;2.38;;
56653;SDS011;45096;52.302;4.634;2022-10-26T01:23:09;2.22;;;2.10;;
56653;SDS011;45096;52.302;4.634;2022-10-26T01:25:44;2.47;;;2.28;;
56653;SDS011;45096;52.302;4.634;2022-10-26T01:28:51;2.70;;;2.50;;
56653;SDS011;45096;52.302;4.634;2022-10-26T01:31:32;2.67;;;2.47;;
56653;SDS011;45096;52.302;4.634;2022-10-26T01:34:00;2.38;;;2.22;;
56653;SDS011;45096;52.302;4.634;2022-10-26T01:36:29;2.63;;;2.42;;
56653;SDS011;45096;52.302;4.634;2022-10-26T01:38:59;4.65;;;2.60;;
56653;SDS011;45096;52.302;4.634;2022-10-26T01:41:27;3.85;;;3.03;;
56653;SDS011;45096;52.302;4.634;2022-10-26T01:43:55;2.40;;;2.30;;
56653;SDS011;45096;52.302;4.634;2022-10-26T01:46:24;2.85;;;2.28;;
56653;SDS011;45096;52.302;4.634;2022-10-26T01:48:53;2.60;;;2.40;;
56653;SDS011;45096;52.302;4.634;2022-10-26T01:51:21;2.40;;;2.30;;
56653;SDS011;45096;52.302;4.634;2022-10-26T01:53:47;2.78;;;2.55;;
56653;SDS011;45096;52.302;4.634;2022-10-26T01:56:14;2.53;;;2.33;;
56653;SDS011;45096;52.302;4.634;2022-10-26T01:58:48;3.30;;;2.90;;
56653;SDS011;45096;52.302;4.634;2022-10-26T02:01:28;3.50;;;3.20;;
56653;SDS011;45096;52.302;4.634;2022-10-26T02:04:03;5.28;;;2.63;;
56653;SDS011;45096;52.302;4.634;2022-10-26T02:06:34;3.38;;;2.42;;
56653;SDS011;45096;52.302;4.634;2022-10-26T02:09:06;2.53;;;2.33;;
56653;SDS011;45096;52.302;4.634;2022-10-26T02:11:35;2.70;;;2.50;;
56653;SDS011;45096;52.302;4.634;2022-10-26T02:14:06;2.70;;;2.35;;
56653;SDS011;45096;52.302;4.634;2022-10-26T02:16:36;2.72;;;2.53;;
56653;SDS011;45096;52.302;4.634;2022-10-26T02:19:07;2.75;;;2.55;;
56653;SDS011;45096;52.302;4.634;2022-10-26T02:21:35;5.90;;;2.83;;
56653;SDS011;45096;52.302;4.634;2022-10-26T02:24:02;2.90;;;2.70;;
56653;SDS011;45096;52.302;4.634;2022-10-26T02:26:29;2.35;;;2.10;;
56653;SDS011;45096;52.302;4.634;2022-10-26T02:28:56;2.58;;;2.38;;
56653;SDS011;45096;52.302;4.634;2022-10-26T02:31:24;3.13;;;2.80;;
56653;SDS011;45096;52.302;4.634;2022-10-26T02:33:52;2.70;;;2.50;;
56653;SDS011;45096;52.302;4.634;2022-10-26T02:36:21;3.40;;;2.85;;
56653;SDS011;45096;52.302;4.634;2022-10-26T02:38:49;4.03;;;2.35;;
56653;SDS011;45096;52.302;4.634;2022-10-26T02:41:15;2.47;;;2.28;;
56653;SDS011;45096;52.302;4.634;2022-10-26T02:43:42;2.60;;;2.50;;
56653;SDS011;45096;52.302;4.634;2022-10-26T02:46:12;2.90;;;2.65;;
56653;SDS011;45096;52.302;4.634;2022-10-26T02:48:40;2.88;;;2.67;;
56653;SDS011;45096;52.302;4.634;2022-10-26T02:51:08;2.47;;;2.35;;
56653;SDS011;45096;52.302;4.634;2022-10-26T02:53:37;2.65;;;2.55;;
56653;SDS011;45096;52.302;4.634;2022-10-26T02:56:07;3.60;;;2.65;;
56653;SDS011;45096;52.302;4.634;2022-10-26T02:58:36;2.60;;;2.50;;
56653;SDS011;45096;52.302;4.634;2022-10-26T03:01:04;2.40;;;2.30;;
56653;SDS011;45096;52.302;4.634;2022-10-26T03:03:29;2.63;;;2.42;;
56653;SDS011;45096;52.302;4.634;2022-10-26T03:05:55;3.30;;;2.60;;
56653;SDS011;45096;52.302;4.634;2022-10-26T03:08:20;2.75;;;2.55;;
56653;SDS011;45096;52.302;4.634;2022-10-26T03:10:47;2.58;;;2.38;;
56653;SDS011;45096;52.302;4.634;2022-10-26T03:13:12;2.80;;;2.65;;
56653;SDS011;45096;52.302;4.634;2022-10-26T03:15:38;2.58;;;2.40;;
56653;SDS011;45096;52.302;4.634;2022-10-26T03:18:04;3.60;;;3.00;;
56653;SDS011;45096;52.302;4.634;2022-10-26T03:20:30;3.10;;;2.58;;
56653;SDS011;45096;52.302;4.634;2022-10-26T03:22:55;3.80;;;2.42;;
56653;SDS011;45096;52.302;4.634;2022-10-26T03:25:20;2.80;;;2.60;;
56653;SDS011;45096;52.302;4.634;2022-10-26T03:27:53;5.63;;;2.67;;
56653;SDS011;45096;52.302;4.634;2022-10-26T03:30:20;3.42;;;2.58;;
56653;SDS011;45096;52.302;4.634;2022-10-26T03:32:46;3.20;;;2.47;;
56653;SDS011;45096;52.302;4.634;2022-10-26T03:35:11;3.53;;;2.67;;
56653;SDS011;45096;52.302;4.634;2022-10-26T03:37:36;2.97;;;2.78;;
56653;SDS011;45096;52.302;4.634;2022-10-26T03:40:02;3.03;;;2.70;;
56653;SDS011;45096;52.302;4.634;2022-10-26T03:42:28;3.80;;;2.78;;
56653;SDS011;45096;52.302;4.634;2022-10-26T03:44:58;2.80;;;2.58;;
56653;SDS011;45096;52.302;4.634;2022-10-26T03:47:24;3.67;;;2.58;;
56653;SDS011;45096;52.302;4.634;2022-10-26T03:49:49;2.92;;;2.67;;
56653;SDS011;45096;52.302;4.634;2022-10-26T03:52:15;3.65;;;2.88;;
56653;SDS011;45096;52.302;4.634;2022-10-26T03:54:40;2.65;;;2.40;;
56653;SDS011;45096;52.302;4.634;2022-10-26T03:57:05;3.22;;;2.72;;
56653;SDS011;45096;52.302;4.634;2022-10-26T03:59:31;2.83;;;2.42;;
56653;SDS011;45096;52.302;4.634;2022-10-26T04:01:58;3.50;;;2.45;;
56653;SDS011;45096;52.302;4.634;2022-10-26T04:04:23;3.67;;;2.70;;
56653;SDS011;45096;52.302;4.634;2022-10-26T04:06:49;2.35;;;2.15;;
56653;SDS011;45096;52.302;4.634;2022-10-26T04:09:14;3.00;;;2.67;;
56653;SDS011;45096;52.302;4.634;2022-10-26T04:11:39;2.92;;;2.70;;
56653;SDS011;45096;52.302;4.634;2022-10-26T04:14:05;2.55;;;2.35;;
56653;SDS011;45096;52.302;4.634;2022-10-26T04:16:30;2.97;;;2.67;;
56653;SDS011;45096;52.302;4.634;2022-10-26T04:18:57;2.90;;;2.65;;
56653;SDS011;45096;52.302;4.634;2022-10-26T04:21:22;2.67;;;2.47;;
56653;SDS011;45096;52.302;4.634;2022-10-26T04:23:48;2.90;;;2.45;;
56653;SDS011;45096;52.302;4.634;2022-10-26T04:26:13;2.63;;;2.42;;
56653;SDS011;45096;52.302;4.634;2022-10-26T04:28:39;2.95;;;2.75;;
56653;SDS011;45096;52.302;4.634;2022-10-26T04:31:04;2.20;;;2.10;;
56653;SDS011;45096;52.302;4.634;2022-10-26T04:33:29;2.92;;;2.72;;
56653;SDS011;45096;52.302;4.634;2022-10-26T04:35:58;2.63;;;2.42;;
56653;SDS011;45096;52.302;4.634;2022-10-26T04:38:24;2.50;;;2.30;;
56653;SDS011;45096;52.302;4.634;2022-10-26T04:40:49;2.85;;;2.47;;
56653;SDS011;45096;52.302;4.634;2022-10-26T04:43:15;2.53;;;2.33;;
56653;SDS011;45096;52.302;4.634;2022-10-26T04:45:40;2.72;;;2.53;;
56653;SDS011;45096;52.302;4.634;2022-10-26T04:48:06;2.92;;;2.70;;
56653;SDS011;45096;52.302;4.634;2022-10-26T04:50:33;2.45;;;2.25;;
56653;SDS011;45096;52.302;4.634;2022-10-26T04:53:00;4.05;;;3.00;;
56653;SDS011;45096;52.302;4.634;2022-10-26T04:55:26;2.45;;;2.30;;
56653;SDS011;45096;52.302;4.634;2022-10-26T04:57:51;2.88;;;2.67;;
56653;SDS011;45096;52.302;4.634;2022-10-26T05:00:17;2.55;;;2.35;;
56653;SDS011;45096;52.302;4.634;2022-10-26T05:02:43;2.60;;;2.40;;
56653;SDS011;45096;52.302;4.634;2022-10-26T05:05:08;3.88;;;2.50;;
56653;SDS011;45096;52.302;4.634;2022-10-26T05:07:34;2.90;;;2.63;;
56653;SDS011;45096;52.302;4.634;2022-10-26T05:10:00;2.90;;;2.70;;
56653;SDS011;45096;52.302;4.634;2022-10-26T05:12:26;2.78;;;2.50;;
56653;SDS011;45096;52.302;4.634;2022-10-26T05:14:51;4.50;;;2.72;;
56653;SDS011;45096;52.302;4.634;2022-10-26T05:17:17;4.15;;;2.97;;
56653;SDS011;45096;52.302;4.634;2022-10-26T05:19:42;4.25;;;2.45;;
56653;SDS011;45096;52.302;4.634;2022-10-26T05:22:07;4.20;;;2.38;;
56653;SDS011;45096;52.302;4.634;2022-10-26T05:24:33;2.83;;;2.55;;
56653;SDS011;45096;52.302;4.634;2022-10-26T05:27:00;3.20;;;2.72;;
56653;SDS011;45096;52.302;4.634;2022-10-26T05:29:25;2.42;;;2.22;;
56653;SDS011;45096;52.302;4.634;2022-10-26T05:31:51;3.35;;;2.45;;
56653;SDS011;45096;52.302;4.634;2022-10-26T05:34:16;2.65;;;2.45;;
56653;SDS011;45096;52.302;4.634;2022-10-26T05:36:41;3.85;;;2.60;;
56653;SDS011;45096;52.302;4.634;2022-10-26T05:39:07;2.75;;;2.38;;
56653;SDS011;45096;52.302;4.634;2022-10-26T05:41:32;3.03;;;2.35;;
56653;SDS011;45096;52.302;4.634;2022-10-26T05:43:59;3.17;;;2.55;;
56653;SDS011;45096;52.302;4.634;2022-10-26T05:46:24;2.78;;;2.58;;
56653;SDS011;45096;52.302;4.634;2022-10-26T05:48:50;3.28;;;2.85;;
56653;SDS011;45096;52.302;4.634;2022-10-26T05:51:15;2.78;;;2.58;;
56653;SDS011;45096;52.302;4.634;2022-10-26T05:53:41;4.55;;;3.85;;
56653;SDS011;45096;52.302;4.634;2022-10-26T05:56:09;2.97;;;2.78;;
56653;SDS011;45096;52.302;4.634;2022-10-26T05:58:41;4.07;;;2.83;;
56653;SDS011;45096;52.302;4.634;2022-10-26T06:01:10;3.22;;;2.83;;
56653;SDS011;45096;52.302;4.634;2022-10-26T06:03:42;3.15;;;2.90;;
56653;SDS011;45096;52.302;4.634;2022-10-26T06:06:16;3.53;;;2.72;;
56653;SDS011;45096;52.302;4.634;2022-10-26T06:08:42;2.85;;;2.65;;
56653;SDS011;45096;52.302;4.634;2022-10-26T06:11:08;4.20;;;2.92;;
56653;SDS011;45096;52.302;4.634;2022-10-26T06:13:34;3.28;;;2.92;;
56653;SDS011;45096;52.302;4.634;2022-10-26T06:16:02;4.10;;;2.88;;
56653;SDS011;45096;52.302;4.634;2022-10-26T06:18:37;3.45;;;3.03;;
56653;SDS011;45096;52.302;4.634;2022-10-26T06:21:09;3.40;;;3.13;;
56653;SDS011;45096;52.302;4.634;2022-10-26T06:23:46;3.00;;;2.70;;
56653;SDS011;45096;52.302;4.634;2022-10-26T06:26:16;3.40;;;3.10;;
56653;SDS011;45096;52.302;4.634;2022-10-26T06:28:50;4.72;;;3.40;;
56653;SDS011;45096;52.302;4.634;2022-10-26T06:31:21;5.28;;;3.30;;
56653;SDS011;45096;52.302;4.634;2022-10-26T06:33:46;4.47;;;3.20;;
56653;SDS011;45096;52.302;4.634;2022-10-26T06:36:15;3.60;;;3.30;;
56653;SDS011;45096;52.302;4.634;2022-10-26T06:38:44;3.67;;;3.38;;
56653;SDS011;45096;52.302;4.634;2022-10-26T06:41:11;6.10;;;3.70;;
56653;SDS011;45096;52.302;4.634;2022-10-26T06:43:37;3.58;;;3.28;;
56653;SDS011;45096;52.302;4.634;2022-10-26T06:46:05;3.25;;;2.95;;
56653;SDS011;45096;52.302;4.634;2022-10-26T06:48:42;5.28;;;3.17;;
56653;SDS011;45096;52.302;4.634;2022-10-26T06:51:13;3.35;;;2.75;;
56653;SDS011;45096;52.302;4.634;2022-10-26T06:53:40;3.30;;;2.95;;
56653;SDS011;45096;52.302;4.634;2022-10-26T06:56:08;3.40;;;3.20;;
56653;SDS011;45096;52.302;4.634;2022-10-26T06:58:35;3.03;;;2.50;;
56653;SDS011;45096;52.302;4.634;2022-10-26T07:01:01;3.63;;;2.75;;
56653;SDS011;45096;52.302;4.634;2022-10-26T07:03:27;4.90;;;3.30;;
56653;SDS011;45096;52.302;4.634;2022-10-26T07:05:54;4.28;;;3.25;;
56653;SDS011;45096;52.302;4.634;2022-10-26T07:08:19;3.05;;;2.80;;
56653;SDS011;45096;52.302;4.634;2022-10-26T07:10:45;4.00;;;3.00;;
56653;SDS011;45096;52.302;4.634;2022-10-26T07:13:11;4.85;;;3.30;;
56653;SDS011;45096;52.302;4.634;2022-10-26T07:15:36;3.67;;;3.08;;
56653;SDS011;45096;52.302;4.634;2022-10-26T07:18:04;3.15;;;2.90;;
56653;SDS011;45096;52.302;4.634;2022-10-26T07:20:30;3.97;;;2.97;;
56653;SDS011;45096;52.302;4.634;2022-10-26T07:22:57;3.80;;;3.47;;
56653;SDS011;45096;52.302;4.634;2022-10-26T07:25:24;10.25;;;2.95;;
56653;SDS011;45096;52.302;4.634;2022-10-26T07:27:50;2.92;;;2.75;;
56653;SDS011;45096;52.302;4.634;2022-10-26T07:30:15;6.50;;;2.80;;
56653;SDS011;45096;52.302;4.634;2022-10-26T07:32:41;2.95;;;2.75;;
56653;SDS011;45096;52.302;4.634;2022-10-26T07:35:06;3.75;;;2.83;;
56653;SDS011;45096;52.302;4.634;2022-10-26T07:37:32;3.47;;;2.50;;
56653;SDS011;45096;52.302;4.634;2022-10-26T07:39:59;5.85;;;3.90;;
56653;SDS011;45096;52.302;4.634;2022-10-26T07:42:24;3.35;;;3.10;;
56653;SDS011;45096;52.302;4.634;2022-10-26T07:44:50;5.07;;;3.10;;
56653;SDS011;45096;52.302;4.634;2022-10-26T07:47:15;3.63;;;3.08;;
56653;SDS011;45096;52.302;4.634;2022-10-26T07:49:40;3.15;;;2.72;;
56653;SDS011;45096;52.302;4.634;2022-10-26T07:52:06;3.40;;;3.10;;
56653;SDS011;45096;52.302;4.634;2022-10-26T07:54:31;3.17;;;2.83;;
56653;SDS011;45096;52.302;4.634;2022-10-26T07:56:58;3.50;;;2.70;;
56653;SDS011;45096;52.302;4.634;2022-10-26T07:59:23;3.28;;;2.75;;
56653;SDS011;45096;52.302;4.634;2022-10-26T08:01:49;3.67;;;3.38;;
56653;SDS011;45096;52.302;4.634;2022-10-26T08:04:14;4.32;;;3.17;;
56653;SDS011;45096;52.302;4.634;2022-10-26T08:06:40;5.32;;;3.20;;
56653;SDS011;45096;52.302;4.634;2022-10-26T08:09:05;4.90;;;4.15;;
56653;SDS011;45096;52.302;4.634;2022-10-26T08:11:31;3.70;;;3.30;;
56653;SDS011;45096;52.302;4.634;2022-10-26T08:13:58;4.20;;;2.75;;
56653;SDS011;45096;52.302;4.634;2022-10-26T08:16:23;3.05;;;2.80;;
56653;SDS011;45096;52.302;4.634;2022-10-26T08:18:49;3.08;;;2.88;;
56653;SDS011;45096;52.302;4.634;2022-10-26T08:21:15;3.22;;;2.75;;
56653;SDS011;45096;52.302;4.634;2022-10-26T08:23:40;2.83;;;2.58;;
56653;SDS011;45096;52.302;4.634;2022-10-26T08:26:06;3.95;;;2.92;;
56653;SDS011;45096;52.302;4.634;2022-10-26T08:28:31;2.65;;;2.42;;
56653;SDS011;45096;52.302;4.634;2022-10-26T08:30:58;3.00;;;2.50;;
56653;SDS011;45096;52.302;4.634;2022-10-26T08:33:24;3.35;;;2.40;;
56653;SDS011;45096;52.302;4.634;2022-10-26T08:35:54;2.60;;;2.40;;
56653;SDS011;45096;52.302;4.634;2022-10-26T08:38:20;2.60;;;2.38;;
56653;SDS011;45096;52.302;4.634;2022-10-26T08:40:45;3.78;;;2.70;;
56653;SDS011;45096;52.302;4.634;2022-10-26T08:43:12;2.90;;;2.67;;
56653;SDS011;45096;52.302;4.634;2022-10-26T08:45:43;3.30;;;2.70;;
56653;SDS011;45096;52.302;4.634;2022-10-26T08:48:12;4.93;;;2.40;;
56653;SDS011;45096;52.302;4.634;2022-10-26T08:50:40;2.45;;;2.35;;
56653;SDS011;45096;52.302;4.634;2022-10-26T08:53:11;2.90;;;2.70;;
56653;SDS011;45096;52.302;4.634;2022-10-26T08:55:41;3.10;;;2.58;;
56653;SDS011;45096;52.302;4.634;2022-10-26T08:58:10;3.47;;;2.78;;
56653;SDS011;45096;52.302;4.634;2022-10-26T09:00:39;2.50;;;2.30;;
56653;SDS011;45096;52.302;4.634;2022-10-26T09:03:07;3.80;;;2.88;;
56653;SDS011;45096;52.302;4.634;2022-10-26T09:05:40;4.35;;;2.75;;
56653;SDS011;45096;52.302;4.634;2022-10-26T09:08:12;2.90;;;2.67;;
56653;SDS011;45096;52.302;4.634;2022-10-26T09:10:39;4.22;;;3.00;;
56653;SDS011;45096;52.302;4.634;2022-10-26T09:13:10;3.33;;;2.78;;
56653;SDS011;45096;52.302;4.634;2022-10-26T09:15:44;3.28;;;2.80;;
56653;SDS011;45096;52.302;4.634;2022-10-26T09:18:18;4.28;;;2.55;;
56653;SDS011;45096;52.302;4.634;2022-10-26T09:20:53;3.72;;;3.08;;
56653;SDS011;45096;52.302;4.634;2022-10-26T09:23:26;4.13;;;3.15;;
56653;SDS011;45096;52.302;4.634;2022-10-26T09:25:57;6.63;;;3.63;;
56653;SDS011;45096;52.302;4.634;2022-10-26T09:28:23;4.28;;;2.78;;
56653;SDS011;45096;52.302;4.634;2022-10-26T09:30:51;3.17;;;2.75;;
56653;SDS011;45096;52.302;4.634;2022-10-26T09:33:18;6.82;;;3.30;;
56653;SDS011;45096;52.302;4.634;2022-10-26T09:35:46;3.85;;;3.13;;
56653;SDS011;45096;52.302;4.634;2022-10-26T09:38:15;3.75;;;3.45;;
56653;SDS011;45096;52.302;4.634;2022-10-26T09:40:45;9.23;;;3.80;;
56653;SDS011;45096;52.302;4.634;2022-10-26T09:43:15;4.47;;;3.28;;
56653;SDS011;45096;52.302;4.634;2022-10-26T09:45:42;4.00;;;3.05;;
56653;SDS011;45096;52.302;4.634;2022-10-26T09:48:11;3.83;;;2.70;;
56653;SDS011;45096;52.302;4.634;2022-10-26T09:50:40;2.85;;;2.65;;
56653;SDS011;45096;52.302;4.634;2022-10-26T09:53:09;2.75;;;2.50;;
56653;SDS011;45096;52.302;4.634;2022-10-26T09:55:38;3.60;;;2.53;;
56653;SDS011;45096;52.302;4.634;2022-10-26T09:58:05;5.93;;;3.65;;
56653;SDS011;45096;52.302;4.634;2022-10-26T10:00:36;4.80;;;4.28;;
56653;SDS011;45096;52.302;4.634;2022-10-26T10:03:02;5.55;;;3.50;;
56653;SDS011;45096;52.302;4.634;2022-10-26T10:05:43;5.45;;;3.13;;
56653;SDS011;45096;52.302;4.634;2022-10-26T10:08:09;5.13;;;3.17;;
56653;SDS011;45096;52.302;4.634;2022-10-26T10:10:38;5.32;;;3.38;;
56653;SDS011;45096;52.302;4.634;2022-10-26T10:13:18;5.22;;;2.88;;
56653;SDS011;45096;52.302;4.634;2022-10-26T10:16:01;4.13;;;2.92;;
56653;SDS011;45096;52.302;4.634;2022-10-26T10:18:28;3.35;;;2.78;;
56653;SDS011;45096;52.302;4.634;2022-10-26T10:20:56;4.32;;;2.58;;
56653;SDS011;45096;52.302;4.634;2022-10-26T10:23:26;7.90;;;2.83;;
56653;SDS011;45096;52.302;4.634;2022-10-26T10:25:59;3.40;;;2.65;;
56653;SDS011;45096;52.302;4.634;2022-10-26T10:28:27;3.33;;;2.70;;
56653;SDS011;45096;52.302;4.634;2022-10-26T10:30:53;2.72;;;2.33;;
56653;SDS011;45096;52.302;4.634;2022-10-26T10:33:19;3.60;;;2.35;;
56653;SDS011;45096;52.302;4.634;2022-10-26T10:35:46;4.72;;;2.53;;
56653;SDS011;45096;52.302;4.634;2022-10-26T10:38:15;4.82;;;2.58;;
56653;SDS011;45096;52.302;4.634;2022-10-26T10:40:47;6.88;;;4.40;;
56653;SDS011;45096;52.302;4.634;2022-10-26T10:43:13;24.05;;;14.32;;
56653;SDS011;45096;52.302;4.634;2022-10-26T10:45:39;18.67;;;10.15;;
56653;SDS011;45096;52.302;4.634;2022-10-26T10:48:12;9.35;;;5.47;;
56653;SDS011;45096;52.302;4.634;2022-10-26T10:50:48;4.75;;;4.10;;
56653;SDS011;45096;52.302;4.634;2022-10-26T10:53:17;6.63;;;4.15;;
56653;SDS011;45096;52.302;4.634;2022-10-26T10:55:46;6.63;;;4.85;;
56653;SDS011;45096;52.302;4.634;2022-10-26T10:58:17;5.18;;;3.17;;
56653;SDS011;45096;52.302;4.634;2022-10-26T11:00:46;5.57;;;3.42;;
56653;SDS011;45096;52.302;4.634;2022-10-26T11:03:14;5.32;;;2.92;;
56653;SDS011;45096;52.302;4.634;2022-10-26T11:05:54;3.65;;;2.90;;
56653;SDS011;45096;52.302;4.634;2022-10-26T11:08:37;5.00;;;2.75;;
56653;SDS011;45096;52.302;4.634;2022-10-26T11:11:07;4.88;;;3.10;;
56653;SDS011;45096;52.302;4.634;2022-10-26T11:13:35;4.85;;;2.97;;
56653;SDS011;45096;52.302;4.634;2022-10-26T11:16:02;4.10;;;2.92;;
56653;SDS011;45096;52.302;4.634;2022-10-26T11:18:32;5.93;;;2.90;;
56653;SDS011;45096;52.302;4.634;2022-10-26T11:21:00;6.75;;;3.05;;
56653;SDS011;45096;52.302;4.634;2022-10-26T11:23:30;6.55;;;3.17;;
56653;SDS011;45096;52.302;4.634;2022-10-26T11:26:02;3.58;;;2.80;;
56653;SDS011;45096;52.302;4.634;2022-10-26T11:28:32;3.58;;;2.85;;
56653;SDS011;45096;52.302;4.634;2022-10-26T11:31:02;4.47;;;2.00;;
56653;SDS011;45096;52.302;4.634;2022-10-26T11:33:32;4.32;;;2.50;;
56653;SDS011;45096;52.302;4.634;2022-10-26T11:36:02;2.83;;;2.42;;
56653;SDS011;45096;52.302;4.634;2022-10-26T11:38:31;5.28;;;2.63;;
56653;SDS011;45096;52.302;4.634;2022-10-26T11:41:00;4.57;;;2.42;;
56653;SDS011;45096;52.302;4.634;2022-10-26T11:43:32;5.00;;;2.58;;
56653;SDS011;45096;52.302;4.634;2022-10-26T11:46:01;6.70;;;2.05;;
56653;SDS011;45096;52.302;4.634;2022-10-26T11:48:30;2.22;;;2.00;;
56653;SDS011;45096;52.302;4.634;2022-10-26T11:50:58;6.25;;;2.60;;
56653;SDS011;45096;52.302;4.634;2022-10-26T11:53:24;5.03;;;2.22;;
56653;SDS011;45096;52.302;4.634;2022-10-26T11:55:52;4.40;;;2.35;;
56653;SDS011;45096;52.302;4.634;2022-10-26T11:58:19;4.40;;;2.30;;
56653;SDS011;45096;52.302;4.634;2022-10-26T12:00:47;3.08;;;2.05;;
56653;SDS011;45096;52.302;4.634;2022-10-26T12:03:15;6.30;;;2.72;;
56653;SDS011;45096;52.302;4.634;2022-10-26T12:05:43;6.55;;;2.50;;
56653;SDS011;45096;52.302;4.634;2022-10-26T12:08:13;3.20;;;2.45;;
56653;SDS011;45096;52.302;4.634;2022-10-26T12:10:40;2.75;;;1.88;;
56653;SDS011;45096;52.302;4.634;2022-10-26T12:13:09;4.35;;;2.42;;
56653;SDS011;45096;52.302;4.634;2022-10-26T12:15:41;3.95;;;2.53;;
56653;SDS011;45096;52.302;4.634;2022-10-26T12:18:12;2.83;;;2.10;;
56653;SDS011;45096;52.302;4.634;2022-10-26T12:20:52;5.35;;;2.10;;
56653;SDS011;45096;52.302;4.634;2022-10-26T12:23:19;7.38;;;2.50;;
56653;SDS011;45096;52.302;4.634;2022-10-26T12:25:45;4.15;;;2.20;;
56653;SDS011;45096;52.302;4.634;2022-10-26T12:34:03;4.35;;;3.03;;
56653;SDS011;45096;52.302;4.634;2022-10-26T12:36:47;4.93;;;2.58;;
56653;SDS011;45096;52.302;4.634;2022-10-26T12:39:29;6.88;;;3.13;;
56653;SDS011;45096;52.302;4.634;2022-10-26T12:41:56;5.80;;;2.63;;
56653;SDS011;45096;52.302;4.634;2022-10-26T12:44:32;5.68;;;2.42;;
56653;SDS011;45096;52.302;4.634;2022-10-26T12:46:59;6.90;;;2.80;;
56653;SDS011;45096;52.302;4.634;2022-10-26T12:52:24;6.93;;;2.67;;
56653;SDS011;45096;52.302;4.634;2022-10-26T12:54:55;3.83;;;1.92;;
56653;SDS011;45096;52.302;4.634;2022-10-26T12:57:44;6.00;;;2.15;;
56653;SDS011;45096;52.302;4.634;2022-10-26T13:00:12;2.58;;;2.17;;
56653;SDS011;45096;52.302;4.634;2022-10-26T13:02:43;5.10;;;2.00;;
56653;SDS011;45096;52.302;4.634;2022-10-26T13:05:28;5.47;;;2.30;;
56653;SDS011;45096;52.302;4.634;2022-10-26T13:08:02;4.38;;;1.88;;
56653;SDS011;45096;52.302;4.634;2022-10-26T13:10:28;5.72;;;2.15;;
56653;SDS011;45096;52.302;4.634;2022-10-26T13:12:54;3.10;;;2.10;;
56653;SDS011;45096;52.302;4.634;2022-10-26T13:15:21;4.55;;;2.20;;
56653;SDS011;45096;52.302;4.634;2022-10-26T13:17:55;3.72;;;2.17;;
56653;SDS011;45096;52.302;4.634;2022-10-26T13:20:23;3.40;;;2.17;;
56653;SDS011;45096;52.302;4.634;2022-10-26T13:22:48;6.00;;;2.50;;
56653;SDS011;45096;52.302;4.634;2022-10-26T13:25:20;4.22;;;1.63;;
56653;SDS011;45096;52.302;4.634;2022-10-26T13:27:55;2.85;;;1.95;;
56653;SDS011;45096;52.302;4.634;2022-10-26T13:35:57;7.40;;;2.55;;
56653;SDS011;45096;52.302;4.634;2022-10-26T13:38:23;7.75;;;2.00;;
56653;SDS011;45096;52.302;4.634;2022-10-26T13:40:54;4.90;;;2.20;;
56653;SDS011;45096;52.302;4.634;2022-10-26T13:43:24;5.55;;;2.05;;
56653;SDS011;45096;52.302;4.634;2022-10-26T13:45:52;4.97;;;3.20;;
56653;SDS011;45096;52.302;4.634;2022-10-26T13:48:21;5.32;;;3.47;;
56653;SDS011;45096;52.302;4.634;2022-10-26T13:50:51;3.63;;;2.40;;
56653;SDS011;45096;52.302;4.634;2022-10-26T13:53:19;5.32;;;2.60;;
56653;SDS011;45096;52.302;4.634;2022-10-26T13:55:48;4.18;;;2.40;;
56653;SDS011;45096;52.302;4.634;2022-10-26T13:58:18;6.65;;;2.42;;
56653;SDS011;45096;52.302;4.634;2022-10-26T14:01:00;3.80;;;2.08;;
56653;SDS011;45096;52.302;4.634;2022-10-26T14:03:26;2.70;;;2.13;;
56653;SDS011;45096;52.302;4.634;2022-10-26T14:05:52;4.97;;;2.10;;
56653;SDS011;45096;52.302;4.634;2022-10-26T14:08:18;4.68;;;1.67;;
56653;SDS011;45096;52.302;4.634;2022-10-26T14:10:45;3.13;;;2.00;;
56653;SDS011;45096;52.302;4.634;2022-10-26T14:13:12;6.40;;;1.70;;
56653;SDS011;45096;52.302;4.634;2022-10-26T14:15:42;2.90;;;1.73;;
56653;SDS011;45096;52.302;4.634;2022-10-26T14:18:11;2.13;;;1.80;;
56653;SDS011;45096;52.302;4.634;2022-10-26T14:20:40;4.22;;;1.98;;
56653;SDS011;45096;52.302;4.634;2022-10-26T14:23:09;1.80;;;1.67;;
56653;SDS011;45096;52.302;4.634;2022-10-26T14:25:51;5.25;;;2.10;;
56653;SDS011;45096;52.302;4.634;2022-10-26T14:28:21;4.70;;;1.85;;
56653;SDS011;45096;52.302;4.634;2022-10-26T14:30:49;3.35;;;2.00;;
56653;SDS011;45096;52.302;4.634;2022-10-26T14:33:17;3.47;;;1.48;;
56653;SDS011;45096;52.302;4.634;2022-10-26T14:35:43;4.03;;;1.60;;
56653;SDS011;45096;52.302;4.634;2022-10-26T14:38:10;3.13;;;1.92;;
56653;SDS011;45096;52.302;4.634;2022-10-26T14:40:40;1.90;;;1.70;;
56653;SDS011;45096;52.302;4.634;2022-10-26T14:43:06;3.45;;;1.60;;
56653;SDS011;45096;52.302;4.634;2022-10-26T14:45:32;2.83;;;1.90;;
56653;SDS011;45096;52.302;4.634;2022-10-26T14:48:01;4.05;;;1.60;;
56653;SDS011;45096;52.302;4.634;2022-10-26T14:50:27;2.47;;;1.58;;
56653;SDS011;45096;52.302;4.634;2022-10-26T14:52:53;2.88;;;1.45;;
56653;SDS011;45096;52.302;4.634;2022-10-26T14:55:21;3.65;;;1.98;;
56653;SDS011;45096;52.302;4.634;2022-10-26T14:57:49;3.10;;;1.45;;
56653;SDS011;45096;52.302;4.634;2022-10-26T15:00:17;4.07;;;1.83;;
56653;SDS011;45096;52.302;4.634;2022-10-26T15:02:43;2.05;;;1.50;;
56653;SDS011;45096;52.302;4.634;2022-10-26T15:05:18;2.60;;;1.42;;
56653;SDS011;45096;52.302;4.634;2022-10-26T15:07:45;4.70;;;1.83;;
56653;SDS011;45096;52.302;4.634;2022-10-26T15:13:09;1.20;;;1.00;;